createdAt,value
2022-07-27T00:01:30.930Z,100293.77
2022-07-27T00:04:00.265Z,100293.04
2022-07-27T00:06:29.205Z,100294.21
2022-07-27T00:08:58.182Z,100295.26
2022-07-27T00:11:26.996Z,100294.02
2022-07-27T00:13:55.909Z,100292.05
2022-07-27T00:16:24.955Z,100289.62
2022-07-27T00:18:54.113Z,100287.28
2022-07-27T00:21:23.004Z,100286.73
2022-07-27T00:23:51.842Z,100291.66
2022-07-27T00:26:21.137Z,100293.50
2022-07-27T00:28:51.325Z,100295.39
2022-07-27T00:31:20.325Z,100300.24
2022-07-27T00:33:49.385Z,100301.96
2022-07-27T00:36:18.317Z,100302.94
2022-07-27T00:38:47.309Z,100303.70
2022-07-27T00:41:16.331Z,100305.55
2022-07-27T00:44:01.019Z,100308.46
2022-07-27T00:46:30.191Z,100310.58
2022-07-27T00:48:59.556Z,100311.77
2022-07-27T00:51:28.789Z,100313.35
2022-07-27T00:53:58.901Z,100311.84
2022-07-27T00:56:27.868Z,100314.93
2022-07-27T00:58:58.503Z,100316.31
2022-07-27T01:01:27.483Z,100318.84
2022-07-27T01:03:57.371Z,100321.27
2022-07-27T01:06:27.258Z,100321.29
2022-07-27T01:09:16.780Z,100321.84
2022-07-27T01:11:48.615Z,100321.23
2022-07-27T01:14:18.456Z,100325.77
2022-07-27T01:16:47.464Z,100323.25
2022-07-27T01:19:16.657Z,100323.61
2022-07-27T01:21:45.747Z,100320.81
2022-07-27T01:24:14.817Z,100324.52
2022-07-27T01:26:44.890Z,100325.93
2022-07-27T01:29:14.369Z,100325.02
2022-07-27T01:31:48.680Z,100328.70
2022-07-27T01:34:17.642Z,100330.96
2022-07-27T01:36:46.821Z,100337.11
2022-07-27T01:39:18.163Z,100339.70
2022-07-27T01:41:47.918Z,100337.33
2022-07-27T01:44:17.187Z,100340.39
2022-07-27T01:46:46.322Z,100340.55
2022-07-27T01:49:16.139Z,100338.89
2022-07-27T01:51:45.563Z,100340.92
2022-07-27T01:54:14.445Z,100340.52
2022-07-27T01:56:43.419Z,100345.64
2022-07-27T01:59:16.638Z,100344.89
2022-07-27T02:01:46.289Z,100345.19
2022-07-27T02:04:15.346Z,100345.21
2022-07-27T02:06:44.423Z,100343.09
2022-07-27T02:09:13.827Z,100342.53
2022-07-27T02:12:01.700Z,100345.70
2022-07-27T02:14:30.815Z,100349.45
2022-07-27T02:17:00.164Z,100351.35
2022-07-27T02:19:32.087Z,100350.87
2022-07-27T02:22:01.131Z,100351.86
2022-07-27T02:24:30.114Z,100353.71
2022-07-27T02:26:59.116Z,100358.89
2022-07-27T02:29:28.237Z,100358.58
2022-07-27T02:31:57.779Z,100364.05
2022-07-27T02:34:26.760Z,100362.39
2022-07-27T02:36:55.718Z,100362.10
2022-07-27T02:39:24.686Z,100362.48
2022-07-27T02:41:53.870Z,100365.77
2022-07-27T02:44:22.922Z,100366.46
2022-07-27T02:46:52.183Z,100365.27
2022-07-27T02:49:21.205Z,100366.60
2022-07-27T02:51:54.325Z,100370.42
2022-07-27T02:54:25.587Z,100367.64
2022-07-27T02:56:56.282Z,100369.97
2022-07-27T02:59:25.672Z,100372.23
2022-07-27T03:01:54.797Z,100373.77
2022-07-27T03:04:26.055Z,100377.71
2022-07-27T03:06:56.434Z,100383.05
2022-07-27T03:09:32.800Z,100387.11
2022-07-27T03:12:03.931Z,100389.99
2022-07-27T03:14:32.843Z,100396.92
2022-07-27T03:17:04.369Z,100401.20
2022-07-27T03:19:33.309Z,100398.20
2022-07-27T03:22:02.614Z,100400.58
2022-07-27T03:24:34.511Z,100403.63
2022-07-27T03:27:03.592Z,100401.58
2022-07-27T03:29:32.580Z,100401.81
2022-07-27T03:32:01.817Z,100394.56
2022-07-27T03:34:31.049Z,100388.88
2022-07-27T03:37:01.229Z,100389.71
2022-07-27T03:39:30.291Z,100386.25
2022-07-27T03:42:00.411Z,100391.66
2022-07-27T03:44:33.817Z,100396.61
2022-07-27T03:47:03.056Z,100393.45
2022-07-27T03:49:32.412Z,100392.44
2022-07-27T03:52:01.816Z,100391.27
2022-07-27T03:54:33.941Z,100393.39
2022-07-27T03:57:03.410Z,100392.12
2022-07-27T03:59:34.950Z,100390.55
2022-07-27T04:02:11.639Z,100388.21
2022-07-27T04:04:40.800Z,100383.81
2022-07-27T04:07:10.581Z,100387.45
2022-07-27T04:09:41.897Z,100385.39
2022-07-27T04:12:13.768Z,100390.35
2022-07-27T04:14:45.644Z,100388.20
2022-07-27T04:17:55.422Z,100385.35
2022-07-27T04:20:08.999Z,100377.94
2022-07-27T04:22:38.189Z,100372.27
2022-07-27T04:25:07.720Z,100379.51
2022-07-27T04:27:37.090Z,100374.19
2022-07-27T04:30:13.418Z,100373.33
2022-07-27T04:32:42.476Z,100367.45
2022-07-27T04:35:12.308Z,100362.04
2022-07-27T04:37:41.538Z,100359.69
2022-07-27T04:40:35.761Z,100353.02
2022-07-27T04:43:07.664Z,100351.83
2022-07-27T04:45:45.971Z,100352.58
2022-07-27T04:48:15.328Z,100353.50
2022-07-27T04:50:47.397Z,100350.75
2022-07-27T04:53:20.459Z,100354.69
2022-07-27T04:55:51.849Z,100358.23
2022-07-27T04:58:23.295Z,100359.08
2022-07-27T05:00:52.609Z,100361.05
2022-07-27T05:03:21.699Z,100367.60
2022-07-27T05:05:50.877Z,100375.13
2022-07-27T05:08:21.329Z,100384.27
2022-07-27T05:10:50.370Z,100388.88
2022-07-27T05:13:19.444Z,100388.99
2022-07-27T05:15:53.989Z,100387.52
2022-07-27T05:18:25.854Z,100388.65
2022-07-27T05:20:55.121Z,100393.27
2022-07-27T05:23:24.003Z,100389.20
2022-07-27T05:25:53.673Z,100386.39
2022-07-27T05:28:23.987Z,100387.88
2022-07-27T05:30:52.877Z,100390.86
2022-07-27T05:33:21.872Z,100393.78
2022-07-27T05:35:51.040Z,100390.16
2022-07-27T05:38:21.673Z,100386.36
2022-07-27T05:40:56.193Z,100392.38
2022-07-27T05:43:28.639Z,100398.19
2022-07-27T05:46:00.291Z,100394.27
2022-07-27T05:48:44.842Z,100401.13
2022-07-27T05:51:18.307Z,100404.09
2022-07-27T05:53:47.361Z,100405.71
2022-07-27T05:56:16.495Z,100406.94
2022-07-27T05:58:45.675Z,100410.05
2022-07-27T06:01:14.944Z,100408.27
2022-07-27T06:03:44.173Z,100406.63
2022-07-27T06:06:31.918Z,100402.16
2022-07-27T06:09:02.847Z,100403.59
2022-07-27T06:11:32.022Z,100403.70
2022-07-27T06:14:01.105Z,100406.38
2022-07-27T06:16:40.030Z,100410.61
2022-07-27T06:19:16.129Z,100411.75
2022-07-27T06:21:53.100Z,100405.57
2022-07-27T06:24:23.516Z,100403.92
2022-07-27T06:27:02.282Z,100404.37
2022-07-27T06:29:31.746Z,100407.95
2022-07-27T06:32:04.063Z,100409.41
2022-07-27T06:34:35.458Z,100410.65
2022-07-27T06:37:06.284Z,100412.48
2022-07-27T06:39:35.437Z,100417.39
2022-07-27T06:42:04.762Z,100417.90
2022-07-27T06:44:33.769Z,100419.13
2022-07-27T06:47:05.080Z,100425.78
2022-07-27T06:49:34.410Z,100423.92
2022-07-27T06:52:07.535Z,100418.73
2022-07-27T06:54:36.609Z,100420.78
2022-07-27T06:57:07.055Z,100424.25
2022-07-27T06:59:42.728Z,100424.81
2022-07-27T07:02:15.179Z,100426.42
2022-07-27T07:04:46.627Z,100420.23
2022-07-27T07:07:15.652Z,100419.23
2022-07-27T07:09:47.581Z,100415.29
2022-07-27T07:12:19.318Z,100408.91
2022-07-27T07:14:50.485Z,100406.23
2022-07-27T07:17:20.006Z,100398.96
2022-07-27T07:19:49.291Z,100401.52
2022-07-27T07:22:20.598Z,100392.59
2022-07-27T07:24:49.933Z,100391.65
2022-07-27T07:27:23.806Z,100393.32
2022-07-27T07:29:52.963Z,100397.11
2022-07-27T07:32:27.744Z,100397.08
2022-07-27T07:35:01.804Z,100396.23
2022-07-27T07:37:33.967Z,100401.33
2022-07-27T07:40:40.132Z,100402.44
2022-07-27T07:43:04.315Z,100399.42
2022-07-27T07:45:44.459Z,100400.89
2022-07-27T07:48:22.177Z,100407.16
2022-07-27T07:50:54.103Z,100412.20
2022-07-27T07:53:25.223Z,100413.42
2022-07-27T07:55:56.957Z,100412.70
2022-07-27T07:58:26.898Z,100413.06
2022-07-27T08:00:55.889Z,100414.02
2022-07-27T08:03:25.003Z,100416.95
2022-07-27T08:05:56.062Z,100417.21
2022-07-27T08:08:25.111Z,100416.02
2022-07-27T08:10:54.166Z,100419.98
2022-07-27T08:13:23.111Z,100421.70
2022-07-27T08:15:53.534Z,100423.96
2022-07-27T08:18:24.956Z,100420.77
2022-07-27T08:20:56.098Z,100416.45
2022-07-27T08:23:27.755Z,100410.58
2022-07-27T08:26:02.893Z,100406.72
2022-07-27T08:28:45.372Z,100405.41
2022-07-27T08:31:50.249Z,100419.42
2022-07-27T08:34:13.189Z,100428.44
2022-07-27T08:36:43.799Z,100436.55
2022-07-27T08:39:41.168Z,100444.86
2022-07-27T08:42:04.710Z,100454.23
2022-07-27T08:44:37.153Z,100463.77
2022-07-27T08:47:09.132Z,100467.94
2022-07-27T08:49:44.164Z,100470.17
2022-07-27T08:52:13.787Z,100473.58
2022-07-27T08:54:43.144Z,100469.58
2022-07-27T08:57:13.871Z,100469.98
2022-07-27T08:59:43.423Z,100471.98
2022-07-27T09:02:17.635Z,100473.20
2022-07-27T09:04:50.805Z,100473.23
2022-07-27T09:07:31.767Z,100472.39
2022-07-27T09:10:01.240Z,100475.18
2022-07-27T09:12:34.995Z,100480.16
2022-07-27T09:15:11.601Z,100482.05
2022-07-27T09:17:50.530Z,100478.36
2022-07-27T09:20:22.346Z,100476.87
2022-07-27T09:22:56.435Z,100477.54
2022-07-27T09:26:02.144Z,100475.41
2022-07-27T09:28:32.899Z,100469.98
2022-07-27T09:31:12.205Z,100465.64
2022-07-27T09:33:49.383Z,100464.95
2022-07-27T09:36:21.215Z,100466.69
2022-07-27T09:39:08.054Z,100463.58
2022-07-27T09:41:55.374Z,100465.33
2022-07-27T09:44:44.912Z,100465.95
2022-07-27T09:47:31.298Z,100467.29
2022-07-27T09:50:24.281Z,100474.63
2022-07-27T09:52:53.489Z,100477.39
2022-07-27T09:55:22.826Z,100476.17
2022-07-27T09:57:57.622Z,100476.77
2022-07-27T10:00:27.698Z,100476.57
2022-07-27T10:03:00.953Z,100478.47
2022-07-27T10:05:34.685Z,100472.71
2022-07-27T10:08:04.043Z,100469.08
2022-07-27T10:10:35.576Z,100467.80
2022-07-27T10:13:05.916Z,100469.92
2022-07-27T10:15:37.272Z,100463.48
2022-07-27T10:18:19.743Z,100457.92
2022-07-27T10:20:48.999Z,100457.88
2022-07-27T10:23:29.632Z,100455.80
2022-07-27T10:26:28.257Z,100454.71
2022-07-27T10:29:15.404Z,100459.35
2022-07-27T10:32:09.182Z,100458.34
2022-07-27T10:34:42.104Z,100459.54
2022-07-27T10:37:18.559Z,100461.08
2022-07-27T10:40:13.999Z,100458.03
2022-07-27T10:42:53.990Z,100460.29
2022-07-27T10:45:24.164Z,100462.98
2022-07-27T10:47:53.633Z,100460.85
2022-07-27T10:50:30.106Z,100460.54
2022-07-27T10:53:11.022Z,100460.89
2022-07-27T10:55:42.935Z,100458.55
2022-07-27T10:58:14.779Z,100457.80
2022-07-27T11:00:54.240Z,100459.26
2022-07-27T11:03:24.713Z,100458.18
2022-07-27T11:06:31.921Z,100457.86
2022-07-27T11:11:50.408Z,100460.34
2022-07-27T11:14:30.222Z,100461.52
2022-07-27T11:17:32.281Z,100464.52
2022-07-27T11:20:03.325Z,100462.88
2022-07-27T11:25:32.077Z,100456.73
2022-07-27T11:28:12.068Z,100454.27
2022-07-27T11:30:41.446Z,100452.45
2022-07-27T11:33:10.955Z,100454.34
2022-07-27T11:36:01.987Z,100457.30
2022-07-27T11:38:45.661Z,100455.99
2022-07-27T11:42:03.134Z,100452.39
2022-07-27T11:44:20.483Z,100451.92
2022-07-27T11:46:52.531Z,100452.31
2022-07-27T11:49:31.536Z,100452.25
2022-07-27T11:52:08.154Z,100449.42
2022-07-27T11:54:44.936Z,100445.88
2022-07-27T11:57:19.112Z,100437.41
2022-07-27T11:59:49.363Z,100439.05
2022-07-27T12:02:21.609Z,100440.41
2022-07-27T12:04:52.761Z,100434.19
2022-07-27T12:07:52.714Z,100438.52
2022-07-27T12:10:24.468Z,100440.79
2022-07-27T12:12:58.797Z,100438.66
2022-07-27T12:15:45.228Z,100437.75
2022-07-27T12:18:15.470Z,100442.82
2022-07-27T12:20:48.833Z,100443.58
2022-07-27T12:23:18.519Z,100440.62
2022-07-27T12:25:49.014Z,100440.45
2022-07-27T12:28:25.740Z,100440.42
2022-07-27T12:30:56.036Z,100440.23
2022-07-27T12:33:37.821Z,100441.79
2022-07-27T12:36:09.528Z,100444.24
2022-07-27T12:38:45.259Z,100442.58
2022-07-27T12:41:29.969Z,100437.79
2022-07-27T12:44:14.095Z,100440.11
2022-07-27T12:47:02.073Z,100438.91
2022-07-27T12:49:46.317Z,100443.80
2022-07-27T12:52:19.267Z,100437.73
2022-07-27T12:55:17.279Z,100434.80
2022-07-27T12:57:56.522Z,100435.14
2022-07-27T13:00:41.095Z,100431.34
2022-07-27T13:03:14.410Z,100431.09
2022-07-27T13:05:43.667Z,100431.42
2022-07-27T13:08:16.578Z,100431.99
2022-07-27T13:10:46.290Z,100433.64
2022-07-27T13:13:19.005Z,100435.41
2022-07-27T13:15:49.423Z,100430.39
2022-07-27T13:18:23.186Z,100427.96
2022-07-27T13:20:54.017Z,100428.93
2022-07-27T13:23:23.144Z,100430.06
2022-07-27T13:25:52.212Z,100429.58
2022-07-27T13:28:21.254Z,100434.46
2022-07-27T13:30:54.799Z,100432.23
2022-07-27T13:33:29.499Z,100431.92
2022-07-27T13:36:01.232Z,100437.98
2022-07-27T13:38:33.655Z,100434.54
2022-07-27T13:41:02.691Z,100433.53
2022-07-27T13:43:34.672Z,100435.83
2022-07-27T13:46:04.127Z,100438.80
2022-07-27T13:48:33.049Z,100441.09
2022-07-27T13:51:02.171Z,100439.41
2022-07-27T13:53:33.692Z,100445.63
2022-07-27T13:56:04.642Z,100444.34
2022-07-27T13:58:35.078Z,100445.55
2022-07-27T14:01:15.171Z,100448.38
2022-07-27T14:03:47.787Z,100449.83
2022-07-27T14:06:20.303Z,100449.48
2022-07-27T14:08:51.983Z,100445.18
2022-07-27T14:11:21.050Z,100444.01
2022-07-27T14:13:50.177Z,100451.61
2022-07-27T14:16:19.448Z,100454.94
2022-07-27T14:18:48.697Z,100454.95
2022-07-27T14:21:18.237Z,100450.80
2022-07-27T14:23:47.311Z,100452.60
2022-07-27T14:26:16.425Z,100449.42
2022-07-27T14:28:45.772Z,100446.23
2022-07-27T14:31:15.562Z,100445.39
2022-07-27T14:33:51.195Z,100448.91
2022-07-27T14:36:26.955Z,100445.23
2022-07-27T14:39:00.470Z,100439.06
2022-07-27T14:41:29.444Z,100435.00
2022-07-27T14:43:58.585Z,100434.46
2022-07-27T14:46:30.233Z,100435.23
2022-07-27T14:49:07.105Z,100436.80
2022-07-27T14:51:37.467Z,100432.42
2022-07-27T14:54:06.506Z,100434.51
2022-07-27T14:56:36.741Z,100435.27
2022-07-27T14:59:05.907Z,100439.59
2022-07-27T15:01:35.268Z,100440.58
2022-07-27T15:04:07.571Z,100433.24
2022-07-27T15:06:39.036Z,100429.95
2022-07-27T15:09:08.485Z,100428.29
2022-07-27T15:11:37.992Z,100429.04
2022-07-27T15:14:06.990Z,100431.35
2022-07-27T15:16:36.331Z,100431.39
2022-07-27T15:19:05.396Z,100433.01
2022-07-27T15:21:34.440Z,100434.19
2022-07-27T15:24:03.520Z,100429.30
2022-07-27T15:26:33.190Z,100431.64
2022-07-27T15:29:02.397Z,100431.37
2022-07-27T15:31:31.833Z,100425.87
2022-07-27T15:34:02.914Z,100428.56
2022-07-27T15:36:35.332Z,100426.69
2022-07-27T15:39:06.534Z,100425.36
2022-07-27T15:41:37.473Z,100426.89
2022-07-27T15:44:12.822Z,100421.77
2022-07-27T15:46:51.643Z,100423.48
2022-07-27T15:49:23.157Z,100419.80
2022-07-27T15:51:52.735Z,100418.13
2022-07-27T15:54:25.850Z,100416.77
2022-07-27T15:56:56.705Z,100415.84
2022-07-27T15:59:25.915Z,100416.55
2022-07-27T16:01:56.166Z,100417.55
2022-07-27T16:04:26.552Z,100415.81
2022-07-27T16:06:58.213Z,100413.95
2022-07-27T16:09:27.558Z,100407.61
2022-07-27T16:11:56.718Z,100406.59
2022-07-27T16:14:25.608Z,100402.17
2022-07-27T16:16:55.689Z,100401.92
2022-07-27T16:19:24.688Z,100396.40
2022-07-27T16:21:55.922Z,100398.58
2022-07-27T16:24:28.836Z,100404.98
2022-07-27T16:27:07.691Z,100408.73
2022-07-27T16:29:36.861Z,100412.61
2022-07-27T16:32:07.245Z,100414.16
2022-07-27T16:34:36.282Z,100411.34
2022-07-27T16:37:05.333Z,100413.96
2022-07-27T16:39:36.583Z,100416.00
2022-07-27T16:42:05.718Z,100411.37
2022-07-27T16:44:39.613Z,100405.00
2022-07-27T16:47:09.918Z,100398.57
2022-07-27T16:49:41.699Z,100394.64
2022-07-27T16:52:11.144Z,100387.00
2022-07-27T16:54:43.065Z,100387.94
2022-07-27T16:57:43.339Z,100385.23
2022-07-27T17:00:45.822Z,100387.94
2022-07-27T17:03:17.570Z,100384.08
2022-07-27T17:06:05.669Z,100380.81
2022-07-27T17:08:47.632Z,100379.13
2022-07-27T17:11:48.747Z,100378.40
2022-07-27T17:14:39.116Z,100378.33
2022-07-27T17:17:11.958Z,100378.50
2022-07-27T17:19:43.740Z,100379.35
2022-07-27T17:22:19.762Z,100378.45
2022-07-27T17:24:59.933Z,100378.42
2022-07-27T17:27:42.082Z,100375.66
2022-07-27T17:30:27.324Z,100378.70
2022-07-27T17:32:59.042Z,100381.15
2022-07-27T17:35:28.235Z,100377.67
2022-07-27T17:38:06.273Z,100374.89
2022-07-27T17:40:36.328Z,100381.27
2022-07-27T17:43:05.525Z,100384.98
2022-07-27T17:45:39.108Z,100387.42
2022-07-27T17:48:08.268Z,100394.77
2022-07-27T17:50:37.311Z,100399.09
2022-07-27T17:53:07.737Z,100401.20
2022-07-27T17:55:48.091Z,100405.73
2022-07-27T17:58:19.946Z,100403.05
2022-07-27T18:00:49.214Z,100409.70
2022-07-27T18:03:23.242Z,100411.44
2022-07-27T18:05:57.399Z,100414.66
2022-07-27T18:08:26.296Z,100419.86
2022-07-27T18:10:55.406Z,100420.14
2022-07-27T18:13:39.109Z,100420.34
2022-07-27T18:16:12.194Z,100424.23
2022-07-27T18:18:42.891Z,100427.08
2022-07-27T18:21:20.123Z,100426.21
2022-07-27T18:23:51.231Z,100428.45
2022-07-27T18:26:21.439Z,100431.69
2022-07-27T18:28:52.813Z,100436.16
2022-07-27T18:31:24.846Z,100442.02
2022-07-27T18:33:59.717Z,100442.77
2022-07-27T18:36:28.884Z,100446.48
2022-07-27T18:38:58.066Z,100452.96
2022-07-27T18:41:28.466Z,100462.12
2022-07-27T18:44:05.671Z,100466.21
2022-07-27T18:46:43.232Z,100471.94
2022-07-27T18:49:15.246Z,100479.95
2022-07-27T18:51:51.120Z,100485.26
2022-07-27T18:54:21.880Z,100488.35
2022-07-27T18:56:57.551Z,100493.39
2022-07-27T18:59:40.788Z,100496.09
2022-07-27T19:02:10.805Z,100505.23
2022-07-27T19:05:05.564Z,100508.58
2022-07-27T19:07:39.931Z,100510.70
2022-07-27T19:10:15.794Z,100512.29
2022-07-27T19:12:46.853Z,100511.77
2022-07-27T19:15:17.540Z,100515.31
2022-07-27T19:17:52.914Z,100520.92
2022-07-27T19:20:26.993Z,100524.90
2022-07-27T19:23:05.939Z,100531.50
2022-07-27T19:25:35.363Z,100534.70
2022-07-27T19:28:04.833Z,100537.59
2022-07-27T19:30:35.101Z,100539.52
2022-07-27T19:33:06.159Z,100544.52
2022-07-27T19:35:35.412Z,100545.38
2022-07-27T19:38:08.546Z,100547.52
2022-07-27T19:40:46.184Z,100549.24
2022-07-27T19:43:19.879Z,100553.19
2022-07-27T19:45:52.452Z,100552.05
2022-07-27T19:48:25.011Z,100553.46
2022-07-27T19:51:03.283Z,100556.96
2022-07-27T19:53:39.570Z,100557.74
2022-07-27T19:56:08.680Z,100561.17
2022-07-27T19:58:37.785Z,100562.71
2022-07-27T20:01:09.562Z,100564.23
2022-07-27T20:03:52.185Z,100564.20
2022-07-27T20:06:29.003Z,100564.27
2022-07-27T20:09:09.007Z,100568.89
2022-07-27T20:11:38.067Z,100575.65
2022-07-27T20:14:07.051Z,100575.81
2022-07-27T20:16:39.026Z,100579.66
2022-07-27T20:19:07.981Z,100582.34
2022-07-27T20:21:40.391Z,100586.79
2022-07-27T20:24:22.106Z,100586.86
2022-07-27T20:26:56.695Z,100591.30
2022-07-27T20:29:29.489Z,100595.70
2022-07-27T20:32:04.883Z,100599.59
2022-07-27T20:34:33.908Z,100599.27
2022-07-27T20:37:08.014Z,100603.90
2022-07-27T20:39:40.476Z,100607.39
2022-07-27T20:42:17.889Z,100609.27
2022-07-27T20:44:54.915Z,100612.83
2022-07-27T20:47:35.545Z,100617.13
2022-07-27T20:50:09.098Z,100621.19
2022-07-27T20:52:42.479Z,100621.32
2022-07-27T20:55:13.756Z,100624.63
2022-07-27T20:57:42.745Z,100628.07
2022-07-27T21:00:12.984Z,100632.23
2022-07-27T21:02:44.460Z,100632.36
2022-07-27T21:05:17.273Z,100636.86
2022-07-27T21:07:51.831Z,100637.88
2022-07-27T21:10:31.447Z,100644.48
2022-07-27T21:13:00.922Z,100645.19
2022-07-27T21:15:34.981Z,100647.82
2022-07-27T21:18:11.798Z,100652.27
2022-07-27T21:20:45.044Z,100652.90
2022-07-27T21:23:34.829Z,100652.66
2022-07-27T21:26:08.057Z,100656.69
2022-07-27T21:28:54.899Z,100658.57
2022-07-27T21:31:25.773Z,100663.66
2022-07-27T21:33:57.882Z,100664.65
2022-07-27T21:36:30.168Z,100669.01
2022-07-27T21:39:05.114Z,100670.05
2022-07-27T21:41:36.915Z,100670.98
2022-07-27T21:44:08.852Z,100674.27
2022-07-27T21:46:42.627Z,100673.23
2022-07-27T21:49:13.396Z,100674.02
2022-07-27T21:51:42.718Z,100678.56
2022-07-27T21:54:11.972Z,100675.50
2022-07-27T21:56:51.189Z,100675.12
2022-07-27T21:59:25.637Z,100673.33
2022-07-27T22:01:54.813Z,100674.14
2022-07-27T22:04:26.363Z,100678.68
2022-07-27T22:06:55.552Z,100676.70
2022-07-27T22:09:24.701Z,100675.49
2022-07-27T22:11:53.911Z,100681.29
2022-07-27T22:14:25.687Z,100686.46
2022-07-27T22:16:54.838Z,100686.35
2022-07-27T22:19:23.859Z,100692.05
2022-07-27T22:22:01.583Z,100691.59
2022-07-27T22:24:35.381Z,100691.50
2022-07-27T22:27:06.039Z,100695.98
2022-07-27T22:29:37.680Z,100697.46
2022-07-27T22:32:08.276Z,100700.52
2022-07-27T22:34:40.616Z,100705.85
2022-07-27T22:37:14.870Z,100704.92
2022-07-27T22:39:44.285Z,100707.16
2022-07-27T22:42:13.747Z,100707.30
2022-07-27T22:44:43.426Z,100705.44
2022-07-27T22:47:12.698Z,100703.63
2022-07-27T22:49:41.859Z,100706.89
2022-07-27T22:52:11.226Z,100708.57
2022-07-27T22:54:42.080Z,100710.56
2022-07-27T22:57:13.170Z,100715.80
2022-07-27T22:59:42.612Z,100717.98
2022-07-27T23:02:11.991Z,100718.94
2022-07-27T23:04:41.087Z,100724.92
2022-07-27T23:07:13.220Z,100732.52
2022-07-27T23:09:42.374Z,100733.29
2022-07-27T23:12:11.841Z,100735.19
2022-07-27T23:14:49.037Z,100734.93
2022-07-27T23:17:18.790Z,100733.64
2022-07-27T23:19:47.887Z,100736.21
2022-07-27T23:22:17.471Z,100732.61
2022-07-27T23:24:49.749Z,100730.33
2022-07-27T23:27:20.469Z,100730.93
2022-07-27T23:29:50.105Z,100737.75
2022-07-27T23:32:22.454Z,100740.59
2022-07-27T23:34:54.245Z,100735.39
2022-07-27T23:37:23.420Z,100735.64
2022-07-27T23:39:52.506Z,100733.14
2022-07-27T23:42:21.678Z,100731.52
2022-07-27T23:44:50.569Z,100731.03
2022-07-27T23:47:21.830Z,100732.96
2022-07-27T23:49:50.803Z,100733.04
2022-07-27T23:52:20.061Z,100730.55
2022-07-27T23:54:49.104Z,100731.08
2022-07-27T23:57:18.328Z,100732.40
2022-07-27T23:59:47.448Z,100728.82
